createdAt,value
2019-04-19T00:00:56.113Z,5.00
2019-04-19T00:03:24.230Z,3.47
2019-04-19T00:06:16.506Z,4.77
2019-04-19T00:08:56.438Z,4.17
2019-04-19T00:11:18.893Z,4.33
2019-04-19T00:13:36.768Z,4.03
2019-04-19T00:16:04.638Z,4.30
2019-04-19T00:18:32.776Z,11.43
2019-04-19T00:21:19.468Z,4.00
2019-04-19T00:23:37.836Z,6.90
2019-04-19T00:25:59.779Z,5.00
2019-04-19T00:28:36.642Z,8.43
2019-04-19T00:31:11.510Z,5.20
2019-04-19T00:33:33.081Z,4.47
2019-04-19T00:35:53.881Z,4.47
2019-04-19T00:38:38.318Z,3.90
2019-04-19T00:41:22.897Z,4.00
2019-04-19T00:44:25.676Z,6.40
2019-04-19T00:46:53.389Z,3.67
2019-04-19T00:49:14.638Z,7.17
2019-04-19T00:51:54.017Z,4.40
2019-04-19T00:54:11.693Z,6.93
2019-04-19T00:56:38.310Z,2.63
2019-04-19T00:59:03.575Z,6.77
2019-04-19T01:01:29.678Z,5.33
2019-04-19T01:03:57.293Z,4.53
2019-04-19T01:06:32.661Z,3.47
2019-04-19T01:09:01.247Z,3.60
2019-04-19T01:11:33.722Z,5.53
2019-04-19T01:14:08.726Z,4.60
2019-04-19T01:16:31.253Z,5.10
2019-04-19T01:18:55.916Z,3.40
2019-04-19T01:21:17.468Z,4.40
2019-04-19T01:23:48.174Z,4.30
2019-04-19T01:26:15.180Z,3.33
2019-04-19T01:28:46.371Z,3.77
2019-04-19T01:31:16.444Z,4.63
2019-04-19T01:33:42.408Z,4.30
2019-04-19T01:36:08.787Z,2.83
2019-04-19T01:38:43.449Z,5.57
2019-04-19T01:41:20.531Z,4.10
2019-04-19T01:43:54.923Z,3.60
2019-04-19T01:46:31.801Z,2.93
2019-04-19T01:49:08.580Z,3.40
2019-04-19T01:51:43.718Z,3.30
2019-04-19T01:54:32.421Z,4.07
2019-04-19T01:56:49.344Z,3.50
2019-04-19T01:59:11.916Z,4.60
2019-04-19T02:01:39.615Z,3.73
2019-04-19T02:04:12.185Z,3.10
2019-04-19T02:06:41.217Z,5.97
2019-04-19T02:09:07.629Z,4.77
2019-04-19T02:12:09.163Z,3.33
2019-04-19T02:14:34.134Z,3.53
2019-04-19T02:16:57.255Z,4.20
2019-04-19T02:19:24.335Z,3.50
2019-04-19T02:21:51.085Z,3.03
2019-04-19T02:24:23.553Z,2.73
2019-04-19T02:26:53.977Z,5.73
2019-04-19T02:29:20.233Z,4.73
2019-04-19T02:32:13.342Z,4.20
2019-04-19T02:34:40.151Z,4.93
2019-04-19T02:37:16.359Z,5.67
2019-04-19T02:39:45.158Z,5.50
2019-04-19T02:42:21.193Z,3.70
2019-04-19T02:44:35.728Z,4.97
2019-04-19T02:47:12.261Z,4.53
2019-04-19T02:49:44.818Z,4.80
2019-04-19T02:51:58.320Z,5.27
2019-04-19T02:55:00.377Z,3.37
2019-04-19T03:03:06.084Z,3.10
2019-04-19T03:05:31.864Z,3.23
2019-04-19T03:07:40.604Z,4.10
2019-04-19T03:10:15.197Z,2.90
2019-04-19T03:12:53.920Z,3.13
2019-04-19T03:15:20.244Z,2.50
2019-04-19T03:17:51.176Z,3.87
2019-04-19T03:20:21.907Z,3.30
2019-04-19T03:22:52.067Z,2.83
2019-04-19T03:25:18.288Z,3.67
2019-04-19T03:27:47.391Z,4.13
2019-04-19T03:30:17.170Z,5.27
2019-04-19T03:33:04.722Z,3.80
2019-04-19T03:35:14.349Z,3.27
2019-04-19T03:37:44.221Z,3.13
2019-04-19T03:42:49.101Z,4.80
2019-04-19T03:45:19.204Z,4.17
2019-04-19T03:47:50.435Z,3.37
2019-04-19T03:50:15.171Z,2.87
2019-04-19T03:52:49.100Z,3.10
2019-04-19T03:55:14.328Z,3.17
2019-04-19T03:57:37.385Z,3.80
2019-04-19T03:59:56.190Z,3.80
2019-04-19T04:02:29.797Z,3.13
2019-04-19T04:05:00.043Z,3.63
2019-04-19T04:07:25.804Z,3.00
2019-04-19T04:09:59.317Z,3.67
2019-04-19T04:12:44.267Z,4.00
2019-04-19T04:15:36.544Z,3.03
2019-04-19T04:17:48.338Z,3.17
2019-04-19T04:20:15.548Z,5.07
2019-04-19T04:22:46.346Z,4.13
2019-04-19T04:25:18.121Z,2.97
2019-04-19T04:27:53.188Z,7.00
2019-04-19T04:30:17.595Z,2.57
2019-04-19T04:32:52.736Z,4.83
2019-04-19T04:35:24.391Z,4.30
2019-04-19T04:37:49.497Z,3.20
2019-04-19T04:40:04.566Z,2.90
2019-04-19T04:42:40.882Z,3.17
2019-04-19T04:45:22.961Z,3.90
2019-04-19T04:47:51.645Z,3.43
2019-04-19T04:50:54.570Z,3.00
2019-04-19T04:53:15.130Z,2.93
2019-04-19T04:55:50.722Z,3.33
2019-04-19T04:58:20.069Z,3.10
2019-04-19T05:00:50.986Z,2.90
2019-04-19T05:03:31.214Z,3.70
2019-04-19T05:06:02.863Z,3.60
2019-04-19T05:08:29.536Z,3.20
2019-04-19T05:10:56.775Z,2.50
2019-04-19T05:13:22.565Z,2.90
2019-04-19T05:15:52.919Z,3.43
2019-04-19T05:18:26.336Z,2.53
2019-04-19T05:20:48.033Z,4.00
2019-04-19T05:23:17.437Z,2.63
2019-04-19T05:25:52.063Z,2.53
2019-04-19T05:28:16.655Z,3.00
2019-04-19T05:30:42.293Z,2.60
2019-04-19T05:33:08.421Z,3.77
2019-04-19T05:35:51.278Z,3.80
2019-04-19T05:38:35.090Z,2.30
2019-04-19T05:41:04.696Z,3.07
2019-04-19T05:46:38.945Z,2.73
2019-04-19T05:48:49.217Z,2.50
2019-04-19T05:51:33.893Z,3.30
2019-04-19T05:53:44.947Z,8.30
2019-04-19T05:56:09.053Z,2.57
2019-04-19T05:58:48.968Z,2.60
2019-04-19T06:01:23.652Z,2.80
2019-04-19T06:03:50.320Z,2.40
2019-04-19T06:06:26.386Z,2.90
2019-04-19T06:08:36.116Z,3.17
2019-04-19T06:11:03.363Z,3.80
2019-04-19T06:13:29.777Z,4.57
2019-04-19T06:16:19.390Z,2.53
2019-04-19T06:18:46.336Z,2.83
2019-04-19T06:21:23.362Z,3.77
2019-04-19T06:23:55.371Z,2.90
2019-04-19T06:28:57.088Z,3.47
2019-04-19T06:31:21.872Z,3.20
2019-04-19T06:33:42.950Z,2.90
2019-04-19T06:36:00.398Z,2.63
2019-04-19T06:38:24.768Z,3.80
2019-04-19T06:40:59.082Z,4.07
2019-04-19T06:43:35.105Z,3.27
2019-04-19T06:46:05.772Z,2.17
2019-04-19T06:48:22.209Z,2.80
2019-04-19T06:50:53.822Z,2.77
2019-04-19T06:53:16.786Z,2.50
2019-04-19T06:55:48.586Z,2.53
2019-04-19T06:58:19.595Z,3.03
2019-04-19T07:00:58.203Z,2.37
2019-04-19T07:03:12.317Z,3.17
2019-04-19T07:05:49.683Z,2.73
2019-04-19T07:08:48.768Z,3.33
2019-04-19T07:11:00.297Z,2.03
2019-04-19T07:13:21.576Z,2.20
2019-04-19T07:16:13.353Z,2.80
2019-04-19T07:18:22.414Z,3.03
2019-04-19T07:20:53.172Z,3.10
2019-04-19T07:23:15.866Z,2.00
2019-04-19T07:25:54.253Z,2.33
2019-04-19T07:28:08.885Z,2.80
2019-04-19T07:30:28.814Z,4.00
2019-04-19T07:33:03.449Z,2.27
2019-04-19T07:35:53.035Z,3.23
2019-04-19T07:38:17.060Z,3.20
2019-04-19T07:40:42.904Z,3.23
2019-04-19T07:43:06.169Z,2.50
2019-04-19T07:45:53.805Z,2.07
2019-04-19T07:48:08.040Z,2.50
2019-04-19T07:50:42.363Z,2.33
2019-04-19T07:53:02.609Z,2.20
2019-04-19T07:55:33.387Z,3.40
2019-04-19T07:58:33.535Z,2.30
2019-04-19T08:00:53.377Z,2.77
2019-04-19T08:05:56.997Z,2.67
2019-04-19T08:10:51.405Z,2.67
2019-04-19T08:15:55.021Z,2.63
2019-04-19T08:27:52.520Z,2.33
2019-04-19T08:30:17.842Z,3.20
2019-04-19T08:32:42.708Z,3.00
2019-04-19T08:35:14.959Z,2.67
2019-04-19T08:37:42.350Z,2.33
2019-04-19T08:40:26.343Z,2.27
2019-04-19T08:42:55.058Z,2.20
2019-04-19T08:45:11.211Z,2.70
2019-04-19T08:48:09.028Z,2.23
2019-04-19T08:50:41.312Z,2.40
2019-04-19T08:53:23.235Z,3.73
2019-04-19T08:55:52.803Z,2.77
2019-04-19T08:58:08.509Z,2.10
2019-04-19T09:00:58.172Z,2.20
2019-04-19T09:03:17.516Z,2.23
2019-04-19T09:05:47.924Z,2.10
2019-04-19T09:08:18.365Z,3.00
2019-04-19T09:10:47.031Z,2.80
2019-04-19T09:13:22.641Z,3.60
2019-04-19T09:15:38.645Z,2.07
2019-04-19T09:18:31.980Z,2.30
2019-04-19T09:20:49.694Z,3.80
2019-04-19T09:23:09.503Z,2.10
2019-04-19T09:25:48.784Z,2.70
2019-04-19T09:28:36.511Z,3.40
2019-04-19T09:30:57.027Z,2.37
2019-04-19T09:33:14.411Z,2.00
2019-04-19T09:35:43.806Z,2.20
2019-04-19T09:38:13.683Z,2.23
2019-04-19T09:40:41.535Z,2.03
2019-04-19T09:43:17.277Z,2.73
2019-04-19T09:45:31.892Z,2.70
2019-04-19T09:47:59.140Z,2.23
2019-04-19T09:50:39.166Z,2.10
2019-04-19T09:53:25.945Z,2.03
2019-04-19T09:55:45.340Z,4.13
2019-04-19T09:58:11.822Z,2.43
2019-04-19T10:00:25.111Z,2.40
2019-04-19T10:02:56.547Z,2.60
2019-04-19T10:05:20.950Z,2.30
2019-04-19T10:07:48.216Z,2.37
2019-04-19T10:10:16.155Z,2.77
2019-04-19T10:12:43.476Z,2.33
2019-04-19T10:15:32.191Z,2.43
2019-04-19T10:18:00.543Z,2.37
2019-04-19T10:20:38.615Z,1.60
2019-04-19T10:23:06.948Z,2.00
2019-04-19T10:25:41.909Z,2.00
2019-04-19T10:28:05.573Z,2.10
2019-04-19T10:30:38.673Z,2.70
2019-04-19T10:33:06.705Z,2.50
2019-04-19T10:35:33.872Z,2.70
2019-04-19T10:38:01.904Z,2.17
2019-04-19T10:40:29.164Z,2.20
2019-04-19T10:42:56.755Z,1.90
2019-04-19T10:45:23.916Z,2.07
2019-04-19T10:47:51.760Z,3.33
2019-04-19T10:50:32.248Z,2.10
2019-04-19T10:52:50.088Z,1.60
2019-04-19T10:55:18.374Z,2.20
2019-04-19T10:57:45.418Z,2.00
2019-04-19T11:00:13.445Z,3.40
2019-04-19T11:02:40.602Z,1.90
2019-04-19T11:05:09.218Z,2.13
2019-04-19T11:07:39.888Z,2.30
2019-04-19T11:10:05.232Z,3.43
2019-04-19T11:12:32.353Z,2.00
2019-04-19T11:15:00.165Z,1.73
2019-04-19T11:17:27.626Z,2.00
2019-04-19T11:20:11.191Z,2.33
2019-04-19T11:22:23.889Z,2.00
2019-04-19T11:24:51.987Z,2.43
2019-04-19T11:27:19.277Z,3.10
2019-04-19T11:29:46.852Z,2.40
2019-04-19T11:32:33.857Z,1.77
2019-04-19T11:35:01.178Z,2.00
2019-04-19T11:37:29.658Z,2.17
2019-04-19T11:39:57.201Z,2.03
2019-04-19T11:42:25.401Z,2.50
2019-04-19T11:44:52.534Z,3.47
2019-04-19T11:47:19.597Z,2.23
2019-04-19T11:49:47.773Z,2.20
2019-04-19T11:52:35.657Z,2.40
2019-04-19T11:55:04.174Z,1.63
2019-04-19T11:57:38.726Z,2.10
2019-04-19T12:00:29.538Z,1.90
2019-04-19T12:02:58.098Z,2.80
2019-04-19T12:05:30.181Z,2.20
2019-04-19T12:07:54.789Z,1.80
2019-04-19T12:10:22.101Z,2.13
2019-04-19T12:12:49.139Z,2.10
2019-04-19T12:15:16.146Z,1.90
2019-04-19T12:17:44.095Z,1.60
2019-04-19T12:20:11.481Z,1.83
2019-04-19T12:22:39.699Z,1.97
2019-04-19T12:25:07.910Z,1.70
2019-04-19T12:27:35.943Z,3.73
2019-04-19T12:30:03.694Z,2.00
2019-04-19T12:32:39.282Z,1.90
2019-04-19T12:35:06.794Z,1.80
2019-04-19T12:37:34.142Z,2.30
2019-04-19T12:40:03.384Z,2.33
2019-04-19T12:42:33.985Z,1.67
2019-04-19T12:45:02.078Z,1.87
2019-04-19T12:47:29.316Z,1.93
2019-04-19T12:50:02.739Z,2.00
2019-04-19T12:52:26.204Z,3.17
2019-04-19T12:54:54.277Z,1.73
2019-04-19T12:57:25.796Z,1.63
2019-04-19T12:59:53.929Z,1.57
2019-04-19T13:02:26.669Z,1.90
2019-04-19T13:05:08.653Z,2.00
2019-04-19T13:07:41.049Z,1.70
2019-04-19T13:10:09.021Z,5.70
2019-04-19T13:12:37.217Z,1.90
2019-04-19T13:15:05.768Z,1.53
2019-04-19T13:17:33.910Z,1.87
2019-04-19T13:20:10.325Z,1.67
2019-04-19T13:22:30.389Z,1.93
2019-04-19T13:24:57.466Z,1.73
2019-04-19T13:27:36.504Z,1.70
2019-04-19T13:30:07.237Z,1.77
2019-04-19T13:32:22.395Z,1.90
2019-04-19T13:34:49.547Z,1.70
2019-04-19T13:37:23.093Z,1.80
2019-04-19T13:40:10.276Z,1.80
2019-04-19T13:42:37.668Z,2.07
2019-04-19T13:45:14.131Z,1.90
2019-04-19T13:47:34.377Z,1.43
2019-04-19T13:50:12.927Z,2.53
2019-04-19T13:52:30.500Z,1.97
2019-04-19T13:54:58.771Z,1.50
2019-04-19T13:57:26.031Z,1.90
2019-04-19T13:59:59.524Z,1.83
2019-04-19T14:02:23.121Z,1.70
2019-04-19T14:04:51.323Z,1.50
2019-04-19T14:07:19.103Z,2.37
2019-04-19T14:09:47.240Z,1.70
2019-04-19T14:12:15.536Z,1.57
2019-04-19T14:14:42.814Z,1.70
2019-04-19T14:17:09.898Z,1.50
2019-04-19T14:19:37.000Z,1.63
2019-04-19T14:22:04.778Z,2.23
2019-04-19T14:24:33.332Z,1.60
2019-04-19T14:27:01.094Z,1.43
2019-04-19T14:29:29.784Z,2.00
2019-04-19T14:31:56.975Z,1.70
2019-04-19T14:34:24.818Z,1.60
2019-04-19T14:36:52.077Z,2.10
2019-04-19T14:39:20.365Z,1.40
2019-04-19T14:41:47.739Z,2.23
2019-04-19T14:44:15.564Z,1.40
2019-04-19T14:46:42.930Z,1.37
2019-04-19T14:49:11.016Z,5.73
2019-04-19T14:51:40.779Z,1.70
2019-04-19T14:54:07.169Z,1.40
2019-04-19T14:56:34.221Z,1.53
2019-04-19T14:59:01.302Z,1.83
2019-04-19T15:01:57.173Z,1.50
2019-04-19T15:04:42.773Z,2.63
2019-04-19T15:07:10.132Z,1.40
2019-04-19T15:09:37.514Z,1.47
2019-04-19T15:12:04.729Z,1.50
2019-04-19T15:14:32.569Z,1.77
2019-04-19T15:17:00.532Z,1.20
2019-04-19T15:19:27.721Z,1.47
2019-04-19T15:21:54.782Z,1.60
2019-04-19T15:24:22.892Z,1.70
2019-04-19T15:26:50.033Z,1.50
2019-04-19T15:29:18.953Z,1.17
2019-04-19T15:31:46.261Z,3.53
2019-04-19T15:34:13.611Z,1.70
2019-04-19T15:36:41.773Z,1.50
2019-04-19T15:39:11.287Z,1.70
2019-04-19T15:41:38.352Z,1.50
2019-04-19T15:44:06.452Z,1.93
2019-04-19T15:46:33.665Z,1.67
2019-04-19T15:49:01.693Z,2.17
2019-04-19T15:51:33.425Z,1.77
2019-04-19T15:53:58.268Z,1.93
2019-04-19T15:56:26.560Z,1.50
2019-04-19T15:58:54.430Z,1.57
2019-04-19T16:01:29.618Z,1.93
2019-04-19T16:03:58.509Z,1.77
2019-04-19T16:06:46.410Z,1.80
2019-04-19T16:09:33.966Z,1.97
2019-04-19T16:12:33.573Z,1.87
2019-04-19T16:15:02.073Z,1.50
2019-04-19T16:17:29.474Z,1.73
2019-04-19T16:19:57.608Z,2.00
2019-04-19T16:22:24.771Z,1.60
2019-04-19T16:24:51.956Z,2.40
2019-04-19T16:27:19.037Z,1.60
2019-04-19T16:29:51.432Z,2.10
2019-04-19T16:32:14.981Z,2.03
2019-04-19T16:34:43.036Z,1.60
2019-04-19T16:37:10.422Z,1.67
2019-04-19T16:39:37.669Z,1.40
2019-04-19T16:42:04.992Z,1.60
2019-04-19T16:44:32.368Z,2.00
2019-04-19T16:46:59.401Z,3.00
2019-04-19T16:49:26.789Z,1.80
2019-04-19T16:51:57.238Z,1.47
2019-04-19T16:54:22.738Z,2.50
2019-04-19T16:56:49.824Z,1.37
2019-04-19T16:59:16.872Z,1.93
2019-04-19T17:01:43.967Z,1.60
2019-04-19T17:04:11.337Z,1.60
2019-04-19T17:06:38.474Z,2.00
2019-04-19T17:09:06.809Z,1.30
2019-04-19T17:11:34.646Z,1.73
2019-04-19T17:14:02.872Z,1.93
2019-04-19T17:17:04.609Z,1.80
2019-04-19T17:20:00.559Z,2.10
2019-04-19T17:22:40.892Z,2.10
2019-04-19T17:25:08.654Z,1.30
2019-04-19T17:27:36.867Z,2.13
2019-04-19T17:30:04.548Z,1.60
2019-04-19T17:32:32.232Z,1.83
2019-04-19T17:35:00.301Z,2.27
2019-04-19T17:37:27.468Z,1.50
2019-04-19T17:39:54.506Z,1.47
2019-04-19T17:42:22.336Z,1.30
2019-04-19T17:44:49.563Z,1.50
2019-04-19T17:47:21.835Z,1.60
2019-04-19T17:49:47.045Z,1.53
2019-04-19T17:52:21.672Z,1.73
2019-04-19T17:54:57.807Z,2.03
2019-04-19T17:57:13.207Z,1.73
2019-04-19T17:59:40.474Z,1.60
2019-04-19T18:02:07.626Z,1.33
2019-04-19T18:04:35.742Z,1.67
2019-04-19T18:07:04.697Z,3.20
2019-04-19T18:09:33.072Z,1.63
2019-04-19T18:12:01.147Z,1.60
2019-04-19T18:14:29.532Z,1.40
2019-04-19T18:16:56.779Z,1.53
2019-04-19T18:19:31.810Z,2.67
2019-04-19T18:21:54.174Z,1.40
2019-04-19T18:24:27.317Z,1.43
2019-04-19T18:26:54.688Z,1.53
2019-04-19T18:29:24.372Z,1.80
2019-04-19T18:31:58.816Z,1.40
2019-04-19T18:34:43.199Z,1.90
2019-04-19T18:37:11.051Z,1.53
2019-04-19T18:39:38.243Z,1.57
2019-04-19T18:42:06.073Z,1.50
2019-04-19T18:44:43.274Z,1.50
2019-04-19T18:47:02.848Z,1.47
2019-04-19T18:49:30.180Z,1.83
2019-04-19T18:51:59.665Z,1.60
2019-04-19T18:54:30.021Z,1.70
2019-04-19T18:56:58.806Z,1.40
2019-04-19T18:59:25.615Z,1.83
2019-04-19T19:01:52.779Z,1.60
2019-04-19T19:04:24.314Z,1.43
2019-04-19T19:06:49.977Z,1.60
2019-04-19T19:09:19.488Z,1.43
2019-04-19T19:11:55.632Z,1.50
2019-04-19T19:14:20.439Z,1.60
2019-04-19T19:16:45.251Z,2.20
2019-04-19T19:19:19.342Z,1.90
2019-04-19T19:21:45.410Z,1.80
2019-04-19T19:24:44.184Z,1.90
2019-04-19T19:26:52.479Z,1.70
2019-04-19T19:29:08.500Z,1.80
2019-04-19T19:31:36.662Z,1.57
2019-04-19T19:34:03.970Z,3.00
2019-04-19T19:36:38.026Z,1.60
2019-04-19T19:39:08.586Z,1.80
2019-04-19T19:42:20.090Z,1.73
2019-04-19T19:44:11.814Z,1.57
2019-04-19T19:47:00.061Z,1.50
2019-04-19T19:51:43.321Z,1.50
2019-04-19T19:56:48.854Z,1.50
2019-04-19T19:59:12.378Z,1.73
2019-04-19T20:01:36.672Z,1.80
2019-04-19T20:03:56.290Z,1.60
2019-04-19T20:06:26.516Z,2.37
2019-04-19T20:08:55.408Z,1.50
2019-04-19T20:11:26.418Z,1.47
2019-04-19T20:13:54.631Z,2.10
2019-04-19T20:16:23.676Z,1.53
2019-04-19T20:18:51.202Z,1.40
2019-04-19T20:21:19.872Z,1.63
2019-04-19T20:23:58.872Z,2.13
2019-04-19T20:26:24.508Z,1.60
2019-04-19T20:28:43.462Z,1.63
2019-04-19T20:31:11.224Z,1.73
2019-04-19T20:33:46.198Z,1.50
2019-04-19T20:36:09.031Z,1.70
2019-04-19T20:38:42.714Z,2.37
2019-04-19T20:41:08.261Z,1.47
2019-04-19T20:43:45.858Z,1.87
2019-04-19T20:46:09.866Z,1.43
2019-04-19T20:48:32.126Z,1.50
2019-04-19T20:51:10.675Z,2.20
2019-04-19T20:53:39.253Z,1.77
2019-04-19T20:56:35.634Z,1.90
2019-04-19T20:58:46.422Z,1.97
2019-04-19T21:01:08.780Z,1.70
2019-04-19T21:03:39.135Z,1.97
2019-04-19T21:06:06.081Z,2.20
2019-04-19T21:08:37.624Z,1.70
2019-04-19T21:11:06.062Z,1.77
2019-04-19T21:13:31.398Z,1.50
2019-04-19T21:15:58.593Z,1.50
2019-04-19T21:18:27.390Z,2.20
2019-04-19T21:21:02.603Z,1.70
2019-04-19T21:23:27.478Z,1.30
2019-04-19T21:25:57.367Z,1.50
2019-04-19T21:28:24.181Z,1.53
2019-04-19T21:30:54.005Z,1.83
2019-04-19T21:33:20.368Z,1.90
2019-04-19T21:35:53.573Z,1.50
2019-04-19T21:38:21.552Z,2.00
2019-04-19T21:40:45.722Z,1.83
2019-04-19T21:43:14.919Z,1.43
2019-04-19T21:45:47.113Z,1.97
2019-04-19T21:48:11.028Z,2.43
2019-04-19T21:50:42.115Z,1.47
2019-04-19T21:53:09.369Z,2.10
2019-04-19T21:55:40.679Z,1.80
2019-04-19T21:58:10.383Z,1.93
2019-04-19T22:00:58.781Z,1.30
2019-04-19T22:03:24.854Z,1.60
2019-04-19T22:05:51.419Z,1.50
2019-04-19T22:08:23.439Z,1.40
2019-04-19T22:10:50.038Z,1.63
2019-04-19T22:13:16.703Z,1.67
2019-04-19T22:15:50.690Z,1.73
2019-04-19T22:18:13.395Z,1.87
2019-04-19T22:20:40.764Z,1.60
2019-04-19T22:23:10.918Z,2.03
2019-04-19T22:25:47.547Z,1.27
2019-04-19T22:28:05.718Z,1.63
2019-04-19T22:30:38.810Z,1.43
2019-04-19T22:33:03.348Z,1.60
2019-04-19T22:35:30.404Z,1.60
2019-04-19T22:38:00.928Z,1.30
2019-04-19T22:40:26.895Z,1.40
2019-04-19T22:43:00.528Z,1.40
2019-04-19T22:45:24.183Z,1.87
2019-04-19T22:47:53.216Z,1.77
2019-04-19T22:50:26.476Z,2.33
2019-04-19T22:52:50.313Z,1.50
2019-04-19T22:55:19.143Z,1.60
2019-04-19T22:57:52.239Z,1.93
2019-04-19T23:00:15.939Z,1.53
2019-04-19T23:02:58.969Z,1.57
2019-04-19T23:05:35.320Z,1.60
2019-04-19T23:07:59.904Z,1.60
2019-04-19T23:10:32.714Z,1.50
2019-04-19T23:12:57.459Z,1.73
2019-04-19T23:15:29.474Z,1.40
2019-04-19T23:17:54.509Z,1.77
2019-04-19T23:20:25.567Z,1.50
2019-04-19T23:22:51.241Z,1.63
2019-04-19T23:25:20.177Z,1.53
2019-04-19T23:27:51.408Z,1.83
2019-04-19T23:30:23.907Z,1.40
2019-04-19T23:32:50.321Z,1.30
2019-04-19T23:35:21.946Z,2.00
2019-04-19T23:37:47.239Z,1.90
2019-04-19T23:40:15.170Z,1.50
2019-04-19T23:42:45.416Z,1.27
2019-04-19T23:45:12.465Z,2.00
2019-04-19T23:47:43.895Z,2.10
2019-04-19T23:50:08.441Z,1.40
2019-04-19T23:52:39.658Z,1.73
2019-04-19T23:55:04.597Z,1.30
2019-04-19T23:57:38.331Z,1.77
